sensor_id;sensor_type;location;lat;lon;timestamp;P1;durP1;ratioP1;P2;durP2;ratioP2
21505;SDS011;10914;48.886;9.394;2022-08-04T00:00:21;20.73;;;19.42;;
21505;SDS011;10914;48.886;9.394;2022-08-04T00:07:45;23.95;;;22.75;;
21505;SDS011;10914;48.886;9.394;2022-08-04T00:10:12;23.65;;;22.40;;
21505;SDS011;10914;48.886;9.394;2022-08-04T00:12:40;25.27;;;24.08;;
21505;SDS011;10914;48.886;9.394;2022-08-04T00:15:08;25.75;;;24.45;;
21505;SDS011;10914;48.886;9.394;2022-08-04T00:17:37;21.60;;;20.48;;
21505;SDS011;10914;48.886;9.394;2022-08-04T00:20:03;21.98;;;20.80;;
21505;SDS011;10914;48.886;9.394;2022-08-04T00:22:30;22.08;;;20.73;;
21505;SDS011;10914;48.886;9.394;2022-08-04T00:24:56;21.63;;;20.35;;
21505;SDS011;10914;48.886;9.394;2022-08-04T00:27:22;22.60;;;21.40;;
21505;SDS011;10914;48.886;9.394;2022-08-04T00:29:47;22.92;;;21.73;;
21505;SDS011;10914;48.886;9.394;2022-08-04T00:32:12;22.90;;;21.70;;
21505;SDS011;10914;48.886;9.394;2022-08-04T00:34:38;23.15;;;21.85;;
21505;SDS011;10914;48.886;9.394;2022-08-04T00:37:04;23.23;;;21.93;;
21505;SDS011;10914;48.886;9.394;2022-08-04T00:39:29;28.45;;;26.95;;
21505;SDS011;10914;48.886;9.394;2022-08-04T00:50:11;25.83;;;24.38;;
21505;SDS011;10914;48.886;9.394;2022-08-04T00:58:17;28.85;;;27.45;;
21505;SDS011;10914;48.886;9.394;2022-08-04T01:00:56;27.17;;;25.60;;
21505;SDS011;10914;48.886;9.394;2022-08-04T01:11:40;26.75;;;25.25;;
21505;SDS011;10914;48.886;9.394;2022-08-04T01:14:15;26.60;;;25.20;;
21505;SDS011;10914;48.886;9.394;2022-08-04T01:16:48;26.17;;;24.88;;
21505;SDS011;10914;48.886;9.394;2022-08-04T01:27:22;26.33;;;24.85;;
21505;SDS011;10914;48.886;9.394;2022-08-04T01:29:50;26.30;;;25.00;;
21505;SDS011;10914;48.886;9.394;2022-08-04T01:34:46;33.85;;;32.20;;
21505;SDS011;10914;48.886;9.394;2022-08-04T01:37:25;32.95;;;31.35;;
21505;SDS011;10914;48.886;9.394;2022-08-04T01:40:02;32.65;;;30.90;;
21505;SDS011;10914;48.886;9.394;2022-08-04T01:42:29;33.95;;;32.25;;
21505;SDS011;10914;48.886;9.394;2022-08-04T01:44:55;29.70;;;28.20;;
21505;SDS011;10914;48.886;9.394;2022-08-04T01:47:22;27.10;;;25.80;;
21505;SDS011;10914;48.886;9.394;2022-08-04T01:49:49;26.70;;;25.35;;
21505;SDS011;10914;48.886;9.394;2022-08-04T01:52:15;24.85;;;23.50;;
21505;SDS011;10914;48.886;9.394;2022-08-04T01:54:41;24.65;;;23.45;;
21505;SDS011;10914;48.886;9.394;2022-08-04T01:57:06;27.55;;;26.08;;
21505;SDS011;10914;48.886;9.394;2022-08-04T01:59:33;28.75;;;27.38;;
21505;SDS011;10914;48.886;9.394;2022-08-04T02:01:59;34.28;;;32.50;;
21505;SDS011;10914;48.886;9.394;2022-08-04T02:04:24;31.57;;;29.97;;
21505;SDS011;10914;48.886;9.394;2022-08-04T02:09:22;28.10;;;26.63;;
21505;SDS011;10914;48.886;9.394;2022-08-04T02:11:52;27.33;;;25.90;;
21505;SDS011;10914;48.886;9.394;2022-08-04T02:14:24;26.00;;;24.63;;
21505;SDS011;10914;48.886;9.394;2022-08-04T02:17:12;27.00;;;25.60;;
21505;SDS011;10914;48.886;9.394;2022-08-04T02:19:48;28.27;;;26.77;;
21505;SDS011;10914;48.886;9.394;2022-08-04T02:22:16;27.98;;;26.35;;
21505;SDS011;10914;48.886;9.394;2022-08-04T02:24:45;28.08;;;26.58;;
21505;SDS011;10914;48.886;9.394;2022-08-04T02:27:10;28.33;;;26.83;;
21505;SDS011;10914;48.886;9.394;2022-08-04T02:29:44;30.95;;;29.30;;
21505;SDS011;10914;48.886;9.394;2022-08-04T02:32:18;38.38;;;36.45;;
21505;SDS011;10914;48.886;9.394;2022-08-04T02:37:46;32.33;;;30.63;;
21505;SDS011;10914;48.886;9.394;2022-08-04T02:40:12;31.58;;;29.67;;
21505;SDS011;10914;48.886;9.394;2022-08-04T02:42:38;32.25;;;30.65;;
21505;SDS011;10914;48.886;9.394;2022-08-04T02:45:03;37.70;;;35.88;;
21505;SDS011;10914;48.886;9.394;2022-08-04T02:47:29;27.25;;;25.83;;
21505;SDS011;10914;48.886;9.394;2022-08-04T02:49:55;27.42;;;26.02;;
21505;SDS011;10914;48.886;9.394;2022-08-04T02:52:21;28.27;;;26.77;;
21505;SDS011;10914;48.886;9.394;2022-08-04T02:54:48;28.10;;;26.65;;
21505;SDS011;10914;48.886;9.394;2022-08-04T02:57:15;33.97;;;32.20;;
21505;SDS011;10914;48.886;9.394;2022-08-04T02:59:48;33.85;;;32.10;;
21505;SDS011;10914;48.886;9.394;2022-08-04T03:02:18;40.38;;;38.20;;
21505;SDS011;10914;48.886;9.394;2022-08-04T03:04:56;38.53;;;36.63;;
21505;SDS011;10914;48.886;9.394;2022-08-04T03:12:55;31.42;;;29.83;;
21505;SDS011;10914;48.886;9.394;2022-08-04T03:20:44;33.88;;;32.10;;
21505;SDS011;10914;48.886;9.394;2022-08-04T03:36:07;39.05;;;37.05;;
21505;SDS011;10914;48.886;9.394;2022-08-04T03:46:25;36.45;;;34.50;;
21505;SDS011;10914;48.886;9.394;2022-08-04T03:57:51;44.78;;;42.60;;
21505;SDS011;10914;48.886;9.394;2022-08-04T04:00:22;37.53;;;35.65;;
21505;SDS011;10914;48.886;9.394;2022-08-04T04:05:39;40.58;;;38.58;;
21505;SDS011;10914;48.886;9.394;2022-08-04T04:08:14;36.15;;;34.25;;
21505;SDS011;10914;48.886;9.394;2022-08-04T04:35:06;44.63;;;42.38;;
21505;SDS011;10914;48.886;9.394;2022-08-04T04:37:55;41.92;;;39.85;;
21505;SDS011;10914;48.886;9.394;2022-08-04T04:45:46;35.95;;;34.08;;
21505;SDS011;10914;48.886;9.394;2022-08-04T04:48:25;33.92;;;32.03;;
21505;SDS011;10914;48.886;9.394;2022-08-04T04:50:57;34.55;;;32.65;;
21505;SDS011;10914;48.886;9.394;2022-08-04T04:53:37;37.33;;;35.30;;
21505;SDS011;10914;48.886;9.394;2022-08-04T04:56:40;39.03;;;36.95;;
21505;SDS011;10914;48.886;9.394;2022-08-04T04:58:58;39.67;;;37.63;;
21505;SDS011;10914;48.886;9.394;2022-08-04T05:14:03;35.38;;;33.55;;
21505;SDS011;10914;48.886;9.394;2022-08-04T05:21:41;39.15;;;37.15;;
21505;SDS011;10914;48.886;9.394;2022-08-04T05:24:09;32.67;;;30.88;;
21505;SDS011;10914;48.886;9.394;2022-08-04T05:26:37;28.08;;;26.58;;
21505;SDS011;10914;48.886;9.394;2022-08-04T05:29:05;24.48;;;23.08;;
21505;SDS011;10914;48.886;9.394;2022-08-04T05:31:32;24.58;;;23.20;;
21505;SDS011;10914;48.886;9.394;2022-08-04T05:34:06;23.20;;;21.92;;
21505;SDS011;10914;48.886;9.394;2022-08-04T05:36:37;22.33;;;21.13;;
21505;SDS011;10914;48.886;9.394;2022-08-04T05:39:03;22.83;;;21.63;;
21505;SDS011;10914;48.886;9.394;2022-08-04T05:41:29;22.88;;;21.30;;
21505;SDS011;10914;48.886;9.394;2022-08-04T05:43:55;21.95;;;20.65;;
21505;SDS011;10914;48.886;9.394;2022-08-04T05:46:21;21.20;;;20.02;;
21505;SDS011;10914;48.886;9.394;2022-08-04T05:48:47;21.45;;;20.35;;
21505;SDS011;10914;48.886;9.394;2022-08-04T05:51:13;21.73;;;20.42;;
21505;SDS011;10914;48.886;9.394;2022-08-04T05:53:39;21.90;;;20.67;;
21505;SDS011;10914;48.886;9.394;2022-08-04T05:56:08;21.90;;;20.75;;
21505;SDS011;10914;48.886;9.394;2022-08-04T05:58:33;23.65;;;22.38;;
21505;SDS011;10914;48.886;9.394;2022-08-04T06:00:59;24.30;;;22.92;;
21505;SDS011;10914;48.886;9.394;2022-08-04T06:03:26;24.35;;;22.95;;
21505;SDS011;10914;48.886;9.394;2022-08-04T06:05:52;22.55;;;21.35;;
21505;SDS011;10914;48.886;9.394;2022-08-04T06:08:18;22.70;;;21.48;;
21505;SDS011;10914;48.886;9.394;2022-08-04T06:10:43;20.83;;;19.73;;
21505;SDS011;10914;48.886;9.394;2022-08-04T06:13:10;23.10;;;21.80;;
21505;SDS011;10914;48.886;9.394;2022-08-04T06:15:37;25.15;;;23.85;;
21505;SDS011;10914;48.886;9.394;2022-08-04T06:18:05;27.30;;;25.90;;
21505;SDS011;10914;48.886;9.394;2022-08-04T06:20:32;26.35;;;24.75;;
21505;SDS011;10914;48.886;9.394;2022-08-04T06:22:59;23.27;;;22.05;;
21505;SDS011;10914;48.886;9.394;2022-08-04T06:25:27;22.75;;;21.55;;
21505;SDS011;10914;48.886;9.394;2022-08-04T06:27:53;19.33;;;18.25;;
21505;SDS011;10914;48.886;9.394;2022-08-04T06:30:19;23.08;;;21.77;;
21505;SDS011;10914;48.886;9.394;2022-08-04T06:32:45;23.88;;;22.58;;
21505;SDS011;10914;48.886;9.394;2022-08-04T06:35:13;20.67;;;19.48;;
21505;SDS011;10914;48.886;9.394;2022-08-04T06:37:39;20.52;;;19.52;;
21505;SDS011;10914;48.886;9.394;2022-08-04T06:40:04;23.27;;;21.88;;
21505;SDS011;10914;48.886;9.394;2022-08-04T06:42:33;21.55;;;20.33;;
21505;SDS011;10914;48.886;9.394;2022-08-04T06:44:58;20.67;;;19.48;;
21505;SDS011;10914;48.886;9.394;2022-08-04T06:47:23;18.75;;;17.77;;
21505;SDS011;10914;48.886;9.394;2022-08-04T06:49:52;20.90;;;19.80;;
21505;SDS011;10914;48.886;9.394;2022-08-04T06:52:18;19.23;;;18.08;;
21505;SDS011;10914;48.886;9.394;2022-08-04T06:54:44;18.48;;;17.48;;
21505;SDS011;10914;48.886;9.394;2022-08-04T06:57:10;18.58;;;17.58;;
21505;SDS011;10914;48.886;9.394;2022-08-04T06:59:35;18.15;;;17.25;;
21505;SDS011;10914;48.886;9.394;2022-08-04T07:02:00;18.15;;;17.25;;
21505;SDS011;10914;48.886;9.394;2022-08-04T07:04:26;18.35;;;17.45;;
21505;SDS011;10914;48.886;9.394;2022-08-04T07:06:51;18.58;;;17.60;;
21505;SDS011;10914;48.886;9.394;2022-08-04T07:09:17;18.77;;;17.58;;
21505;SDS011;10914;48.886;9.394;2022-08-04T07:11:42;18.48;;;17.48;;
21505;SDS011;10914;48.886;9.394;2022-08-04T07:14:08;18.23;;;17.23;;
21505;SDS011;10914;48.886;9.394;2022-08-04T07:16:33;19.10;;;18.08;;
21505;SDS011;10914;48.886;9.394;2022-08-04T07:18:59;19.10;;;17.98;;
21505;SDS011;10914;48.886;9.394;2022-08-04T07:21:24;18.30;;;17.40;;
21505;SDS011;10914;48.886;9.394;2022-08-04T07:23:51;18.17;;;17.00;;
21505;SDS011;10914;48.886;9.394;2022-08-04T07:26:16;17.67;;;16.70;;
21505;SDS011;10914;48.886;9.394;2022-08-04T07:28:43;18.23;;;17.33;;
21505;SDS011;10914;48.886;9.394;2022-08-04T07:31:09;18.25;;;17.15;;
21505;SDS011;10914;48.886;9.394;2022-08-04T07:33:35;17.85;;;16.95;;
21505;SDS011;10914;48.886;9.394;2022-08-04T07:36:00;21.67;;;20.48;;
21505;SDS011;10914;48.886;9.394;2022-08-04T07:38:25;22.25;;;20.98;;
21505;SDS011;10914;48.886;9.394;2022-08-04T07:40:50;18.77;;;17.77;;
21505;SDS011;10914;48.886;9.394;2022-08-04T07:43:16;17.65;;;16.67;;
21505;SDS011;10914;48.886;9.394;2022-08-04T07:45:41;17.83;;;16.92;;
21505;SDS011;10914;48.886;9.394;2022-08-04T07:48:07;18.48;;;17.58;;
21505;SDS011;10914;48.886;9.394;2022-08-04T07:50:33;18.35;;;17.15;;
21505;SDS011;10914;48.886;9.394;2022-08-04T07:52:58;17.48;;;16.65;;
21505;SDS011;10914;48.886;9.394;2022-08-04T07:55:23;17.95;;;16.95;;
21505;SDS011;10914;48.886;9.394;2022-08-04T07:57:49;18.63;;;17.73;;
21505;SDS011;10914;48.886;9.394;2022-08-04T08:00:14;17.67;;;16.67;;
21505;SDS011;10914;48.886;9.394;2022-08-04T08:02:40;17.92;;;16.88;;
21505;SDS011;10914;48.886;9.394;2022-08-04T08:05:06;17.88;;;16.88;;
21505;SDS011;10914;48.886;9.394;2022-08-04T08:07:32;17.65;;;16.50;;
21505;SDS011;10914;48.886;9.394;2022-08-04T08:09:58;18.13;;;17.20;;
21505;SDS011;10914;48.886;9.394;2022-08-04T08:12:23;18.60;;;17.43;;
21505;SDS011;10914;48.886;9.394;2022-08-04T08:14:48;19.38;;;18.27;;
21505;SDS011;10914;48.886;9.394;2022-08-04T08:17:13;19.27;;;17.80;;
21505;SDS011;10914;48.886;9.394;2022-08-04T08:19:39;18.37;;;17.37;;
21505;SDS011;10914;48.886;9.394;2022-08-04T08:22:04;18.10;;;17.20;;
21505;SDS011;10914;48.886;9.394;2022-08-04T08:24:30;17.85;;;16.67;;
21505;SDS011;10914;48.886;9.394;2022-08-04T08:26:56;17.42;;;16.38;;
21505;SDS011;10914;48.886;9.394;2022-08-04T08:29:21;18.10;;;17.20;;
21505;SDS011;10914;48.886;9.394;2022-08-04T08:31:47;18.10;;;16.60;;
21505;SDS011;10914;48.886;9.394;2022-08-04T08:34:12;16.92;;;16.02;;
21505;SDS011;10914;48.886;9.394;2022-08-04T08:37:21;17.23;;;16.27;;
21505;SDS011;10914;48.886;9.394;2022-08-04T08:39:40;20.88;;;19.88;;
21505;SDS011;10914;48.886;9.394;2022-08-04T08:54:46;18.03;;;17.13;;
21505;SDS011;10914;48.886;9.394;2022-08-04T09:07:56;17.40;;;16.50;;
21505;SDS011;10914;48.886;9.394;2022-08-04T09:15:58;16.38;;;15.57;;
21505;SDS011;10914;48.886;9.394;2022-08-04T09:18:36;16.27;;;15.48;;
21505;SDS011;10914;48.886;9.394;2022-08-04T09:28:46;16.17;;;15.38;;
21505;SDS011;10914;48.886;9.394;2022-08-04T09:31:12;15.57;;;14.77;;
21505;SDS011;10914;48.886;9.394;2022-08-04T09:39:00;16.70;;;15.45;;
21505;SDS011;10914;48.886;9.394;2022-08-04T09:41:35;16.20;;;15.30;;
21505;SDS011;10914;48.886;9.394;2022-08-04T09:44:20;16.30;;;15.40;;
21505;SDS011;10914;48.886;9.394;2022-08-04T09:46:49;16.63;;;15.73;;
21505;SDS011;10914;48.886;9.394;2022-08-04T09:49:22;18.35;;;17.45;;
21505;SDS011;10914;48.886;9.394;2022-08-04T10:01:43;17.20;;;16.07;;
21505;SDS011;10914;48.886;9.394;2022-08-04T10:04:09;16.70;;;15.80;;
21505;SDS011;10914;48.886;9.394;2022-08-04T10:11:36;16.63;;;15.52;;
21505;SDS011;10914;48.886;9.394;2022-08-04T10:14:06;16.38;;;15.57;;
21505;SDS011;10914;48.886;9.394;2022-08-04T10:16:39;15.48;;;14.70;;
21505;SDS011;10914;48.886;9.394;2022-08-04T10:21:37;17.05;;;16.17;;
21505;SDS011;10914;48.886;9.394;2022-08-04T10:24:29;17.00;;;16.10;;
21505;SDS011;10914;48.886;9.394;2022-08-04T10:27:04;18.88;;;17.77;;
21505;SDS011;10914;48.886;9.394;2022-08-04T10:29:45;17.67;;;16.88;;
21505;SDS011;10914;48.886;9.394;2022-08-04T10:32:13;18.17;;;17.27;;
21505;SDS011;10914;48.886;9.394;2022-08-04T10:34:40;18.00;;;17.10;;
21505;SDS011;10914;48.886;9.394;2022-08-04T10:37:18;17.27;;;16.35;;
21505;SDS011;10914;48.886;9.394;2022-08-04T10:39:53;18.83;;;17.77;;
21505;SDS011;10914;48.886;9.394;2022-08-04T10:42:38;16.48;;;15.55;;
21505;SDS011;10914;48.886;9.394;2022-08-04T10:45:15;17.83;;;16.83;;
21505;SDS011;10914;48.886;9.394;2022-08-04T10:47:45;17.52;;;16.60;;
21505;SDS011;10914;48.886;9.394;2022-08-04T10:50:14;15.82;;;15.02;;
21505;SDS011;10914;48.886;9.394;2022-08-04T10:52:44;16.17;;;15.38;;
21505;SDS011;10914;48.886;9.394;2022-08-04T10:55:24;15.45;;;14.68;;
21505;SDS011;10914;48.886;9.394;2022-08-04T10:57:53;16.35;;;15.40;;
21505;SDS011;10914;48.886;9.394;2022-08-04T11:00:26;15.50;;;14.60;;
21505;SDS011;10914;48.886;9.394;2022-08-04T11:03:07;15.95;;;15.05;;
21505;SDS011;10914;48.886;9.394;2022-08-04T11:05:40;15.25;;;14.45;;
21505;SDS011;10914;48.886;9.394;2022-08-04T11:10:58;16.13;;;15.23;;
21505;SDS011;10914;48.886;9.394;2022-08-04T11:13:25;16.05;;;15.25;;
21505;SDS011;10914;48.886;9.394;2022-08-04T11:15:53;15.20;;;14.40;;
21505;SDS011;10914;48.886;9.394;2022-08-04T11:20:52;15.45;;;14.68;;
21505;SDS011;10914;48.886;9.394;2022-08-04T11:23:20;14.75;;;13.95;;
21505;SDS011;10914;48.886;9.394;2022-08-04T11:31:30;13.60;;;13.00;;
21505;SDS011;10914;48.886;9.394;2022-08-04T11:41:50;14.82;;;14.13;;
21505;SDS011;10914;48.886;9.394;2022-08-04T11:44:28;14.40;;;13.50;;
21505;SDS011;10914;48.886;9.394;2022-08-04T11:46:56;14.63;;;13.63;;
21505;SDS011;10914;48.886;9.394;2022-08-04T11:49:31;14.60;;;13.82;;
21505;SDS011;10914;48.886;9.394;2022-08-04T11:51:58;15.63;;;14.82;;
21505;SDS011;10914;48.886;9.394;2022-08-04T11:54:24;15.48;;;14.75;;
21505;SDS011;10914;48.886;9.394;2022-08-04T11:56:49;15.17;;;14.37;;
21505;SDS011;10914;48.886;9.394;2022-08-04T11:59:15;15.80;;;14.90;;
21505;SDS011;10914;48.886;9.394;2022-08-04T12:01:46;15.57;;;14.88;;
21505;SDS011;10914;48.886;9.394;2022-08-04T12:06:50;15.85;;;15.10;;
21505;SDS011;10914;48.886;9.394;2022-08-04T12:14:25;18.70;;;17.70;;
21505;SDS011;10914;48.886;9.394;2022-08-04T12:17:00;18.60;;;17.60;;
21505;SDS011;10914;48.886;9.394;2022-08-04T12:19:31;17.30;;;16.50;;
21505;SDS011;10914;48.886;9.394;2022-08-04T12:21:57;16.98;;;16.00;;
21505;SDS011;10914;48.886;9.394;2022-08-04T12:24:41;17.02;;;16.02;;
21505;SDS011;10914;48.886;9.394;2022-08-04T12:27:19;16.48;;;15.40;;
21505;SDS011;10914;48.886;9.394;2022-08-04T12:29:45;17.75;;;16.75;;
21505;SDS011;10914;48.886;9.394;2022-08-04T12:39:58;17.48;;;16.58;;
21505;SDS011;10914;48.886;9.394;2022-08-04T12:45:08;17.90;;;17.00;;
21505;SDS011;10914;48.886;9.394;2022-08-04T12:47:34;17.35;;;16.45;;
21505;SDS011;10914;48.886;9.394;2022-08-04T12:50:01;16.88;;;15.90;;
21505;SDS011;10914;48.886;9.394;2022-08-04T12:52:28;17.85;;;16.77;;
21505;SDS011;10914;48.886;9.394;2022-08-04T12:54:54;17.27;;;16.27;;
21505;SDS011;10914;48.886;9.394;2022-08-04T12:57:20;18.10;;;17.25;;
21505;SDS011;10914;48.886;9.394;2022-08-04T12:59:46;18.67;;;17.58;;
21505;SDS011;10914;48.886;9.394;2022-08-04T13:02:15;18.30;;;17.20;;
21505;SDS011;10914;48.886;9.394;2022-08-04T13:04:42;18.02;;;17.13;;
21505;SDS011;10914;48.886;9.394;2022-08-04T13:07:09;17.92;;;17.00;;
21505;SDS011;10914;48.886;9.394;2022-08-04T13:09:37;16.52;;;15.73;;
21505;SDS011;10914;48.886;9.394;2022-08-04T13:12:11;17.40;;;16.55;;
21505;SDS011;10914;48.886;9.394;2022-08-04T13:14:37;16.75;;;15.93;;
21505;SDS011;10914;48.886;9.394;2022-08-04T13:17:04;17.55;;;16.52;;
21505;SDS011;10914;48.886;9.394;2022-08-04T13:19:30;17.52;;;16.73;;
21505;SDS011;10914;48.886;9.394;2022-08-04T13:21:56;17.23;;;16.42;;
21505;SDS011;10914;48.886;9.394;2022-08-04T13:24:23;18.27;;;17.25;;
21505;SDS011;10914;48.886;9.394;2022-08-04T13:26:57;17.30;;;16.30;;
21505;SDS011;10914;48.886;9.394;2022-08-04T13:29:56;18.02;;;17.13;;
21505;SDS011;10914;48.886;9.394;2022-08-04T13:32:18;17.60;;;16.70;;
21505;SDS011;10914;48.886;9.394;2022-08-04T13:34:44;16.67;;;15.88;;
21505;SDS011;10914;48.886;9.394;2022-08-04T13:37:10;15.80;;;15.00;;
21505;SDS011;10914;48.886;9.394;2022-08-04T13:39:36;17.10;;;16.30;;
21505;SDS011;10914;48.886;9.394;2022-08-04T13:42:06;16.30;;;15.50;;
21505;SDS011;10914;48.886;9.394;2022-08-04T13:44:33;15.70;;;14.90;;
21505;SDS011;10914;48.886;9.394;2022-08-04T13:47:05;19.05;;;17.95;;
21505;SDS011;10914;48.886;9.394;2022-08-04T13:49:31;18.02;;;17.13;;
21505;SDS011;10914;48.886;9.394;2022-08-04T13:52:00;17.93;;;17.03;;
21505;SDS011;10914;48.886;9.394;2022-08-04T13:54:33;15.43;;;14.73;;
21505;SDS011;10914;48.886;9.394;2022-08-04T13:56:59;15.95;;;15.15;;
21505;SDS011;10914;48.886;9.394;2022-08-04T13:59:26;15.88;;;15.07;;
21505;SDS011;10914;48.886;9.394;2022-08-04T14:04:48;18.48;;;17.58;;
21505;SDS011;10914;48.886;9.394;2022-08-04T14:07:15;17.20;;;16.40;;
21505;SDS011;10914;48.886;9.394;2022-08-04T14:09:41;18.15;;;17.20;;
21505;SDS011;10914;48.886;9.394;2022-08-04T14:12:10;17.23;;;16.30;;
21505;SDS011;10914;48.886;9.394;2022-08-04T14:14:43;15.65;;;14.95;;
21505;SDS011;10914;48.886;9.394;2022-08-04T14:17:10;16.58;;;15.77;;
21505;SDS011;10914;48.886;9.394;2022-08-04T14:19:50;17.85;;;16.95;;
21505;SDS011;10914;48.886;9.394;2022-08-04T14:24:57;18.15;;;17.25;;
21505;SDS011;10914;48.886;9.394;2022-08-04T14:27:23;18.25;;;17.15;;
21505;SDS011;10914;48.886;9.394;2022-08-04T14:29:48;18.40;;;17.30;;
21505;SDS011;10914;48.886;9.394;2022-08-04T14:32:13;18.03;;;17.10;;
21505;SDS011;10914;48.886;9.394;2022-08-04T14:34:40;16.93;;;16.13;;
21505;SDS011;10914;48.886;9.394;2022-08-04T14:37:09;16.88;;;16.00;;
21505;SDS011;10914;48.886;9.394;2022-08-04T14:39:35;16.35;;;15.52;;
21505;SDS011;10914;48.886;9.394;2022-08-04T14:42:00;17.10;;;16.17;;
21505;SDS011;10914;48.886;9.394;2022-08-04T14:44:25;15.87;;;15.07;;
21505;SDS011;10914;48.886;9.394;2022-08-04T14:46:51;15.43;;;14.50;;
21505;SDS011;10914;48.886;9.394;2022-08-04T14:49:17;15.27;;;14.43;;
21505;SDS011;10914;48.886;9.394;2022-08-04T14:51:53;14.98;;;14.27;;
21505;SDS011;10914;48.886;9.394;2022-08-04T14:54:52;15.13;;;14.30;;
21505;SDS011;10914;48.886;9.394;2022-08-04T14:57:11;15.57;;;14.68;;
21505;SDS011;10914;48.886;9.394;2022-08-04T15:02:05;15.80;;;14.80;;
21505;SDS011;10914;48.886;9.394;2022-08-04T15:04:30;15.90;;;15.00;;
21505;SDS011;10914;48.886;9.394;2022-08-04T15:06:56;15.20;;;14.50;;
21505;SDS011;10914;48.886;9.394;2022-08-04T15:09:21;16.38;;;15.48;;
21505;SDS011;10914;48.886;9.394;2022-08-04T15:11:47;16.38;;;15.57;;
21505;SDS011;10914;48.886;9.394;2022-08-04T15:14:12;16.20;;;15.40;;
21505;SDS011;10914;48.886;9.394;2022-08-04T15:16:37;16.33;;;15.43;;
21505;SDS011;10914;48.886;9.394;2022-08-04T15:19:02;17.07;;;16.13;;
21505;SDS011;10914;48.886;9.394;2022-08-04T15:21:29;15.37;;;14.57;;
21505;SDS011;10914;48.886;9.394;2022-08-04T15:23:55;15.43;;;14.57;;
21505;SDS011;10914;48.886;9.394;2022-08-04T15:28:53;15.45;;;14.65;;
21505;SDS011;10914;48.886;9.394;2022-08-04T15:31:20;16.25;;;15.45;;
21505;SDS011;10914;48.886;9.394;2022-08-04T15:33:46;15.93;;;15.13;;
21505;SDS011;10914;48.886;9.394;2022-08-04T15:36:21;15.95;;;15.15;;
21505;SDS011;10914;48.886;9.394;2022-08-04T15:39:14;17.63;;;16.73;;
21505;SDS011;10914;48.886;9.394;2022-08-04T15:49:21;18.92;;;17.83;;
21505;SDS011;10914;48.886;9.394;2022-08-04T15:51:46;17.40;;;16.30;;
21505;SDS011;10914;48.886;9.394;2022-08-04T15:54:22;16.23;;;15.40;;
21505;SDS011;10914;48.886;9.394;2022-08-04T15:56:48;17.47;;;16.57;;
21505;SDS011;10914;48.886;9.394;2022-08-04T15:59:14;16.08;;;15.27;;
21505;SDS011;10914;48.886;9.394;2022-08-04T16:01:40;16.58;;;15.70;;
21505;SDS011;10914;48.886;9.394;2022-08-04T16:04:21;17.17;;;16.38;;
21505;SDS011;10914;48.886;9.394;2022-08-04T16:06:46;17.13;;;16.23;;
21505;SDS011;10914;48.886;9.394;2022-08-04T16:09:24;16.88;;;15.98;;
21505;SDS011;10914;48.886;9.394;2022-08-04T16:11:50;16.63;;;15.70;;
21505;SDS011;10914;48.886;9.394;2022-08-04T16:14:15;16.85;;;15.98;;
21505;SDS011;10914;48.886;9.394;2022-08-04T16:19:09;16.48;;;15.68;;
21505;SDS011;10914;48.886;9.394;2022-08-04T16:34:30;14.73;;;13.93;;
21505;SDS011;10914;48.886;9.394;2022-08-04T16:36:57;15.20;;;14.40;;
21505;SDS011;10914;48.886;9.394;2022-08-04T16:39:22;14.57;;;13.85;;
21505;SDS011;10914;48.886;9.394;2022-08-04T16:41:48;16.15;;;15.25;;
21505;SDS011;10914;48.886;9.394;2022-08-04T16:44:33;15.20;;;14.30;;
21505;SDS011;10914;48.886;9.394;2022-08-04T16:47:00;15.15;;;14.35;;
21505;SDS011;10914;48.886;9.394;2022-08-04T16:49:27;15.60;;;14.80;;
21505;SDS011;10914;48.886;9.394;2022-08-04T16:51:52;15.75;;;14.85;;
21505;SDS011;10914;48.886;9.394;2022-08-04T16:54:18;15.75;;;14.85;;
21505;SDS011;10914;48.886;9.394;2022-08-04T16:56:44;15.15;;;14.43;;
21505;SDS011;10914;48.886;9.394;2022-08-04T16:59:11;15.93;;;15.02;;
21505;SDS011;10914;48.886;9.394;2022-08-04T17:01:37;16.50;;;15.55;;
21505;SDS011;10914;48.886;9.394;2022-08-04T17:04:08;15.95;;;15.00;;
21505;SDS011;10914;48.886;9.394;2022-08-04T17:06:36;16.52;;;15.38;;
21505;SDS011;10914;48.886;9.394;2022-08-04T17:09:35;16.17;;;15.30;;
21505;SDS011;10914;48.886;9.394;2022-08-04T17:11:54;17.08;;;16.08;;
21505;SDS011;10914;48.886;9.394;2022-08-04T17:14:23;15.07;;;14.27;;
21505;SDS011;10914;48.886;9.394;2022-08-04T17:16:49;15.15;;;14.35;;
21505;SDS011;10914;48.886;9.394;2022-08-04T17:19:14;16.67;;;15.77;;
21505;SDS011;10914;48.886;9.394;2022-08-04T17:21:40;20.38;;;19.13;;
21505;SDS011;10914;48.886;9.394;2022-08-04T17:24:06;19.37;;;18.27;;
21505;SDS011;10914;48.886;9.394;2022-08-04T17:26:32;19.80;;;18.70;;
21505;SDS011;10914;48.886;9.394;2022-08-04T17:28:58;19.52;;;18.52;;
21505;SDS011;10914;48.886;9.394;2022-08-04T17:31:25;19.83;;;18.83;;
21505;SDS011;10914;48.886;9.394;2022-08-04T17:33:51;20.10;;;19.00;;
21505;SDS011;10914;48.886;9.394;2022-08-04T17:36:16;20.13;;;19.00;;
21505;SDS011;10914;48.886;9.394;2022-08-04T17:38:44;20.63;;;19.25;;
21505;SDS011;10914;48.886;9.394;2022-08-04T17:41:13;20.75;;;19.50;;
21505;SDS011;10914;48.886;9.394;2022-08-04T17:43:48;20.42;;;19.13;;
21505;SDS011;10914;48.886;9.394;2022-08-04T17:48:39;17.58;;;16.65;;
21505;SDS011;10914;48.886;9.394;2022-08-04T17:51:14;16.23;;;15.32;;
21505;SDS011;10914;48.886;9.394;2022-08-04T17:53:40;17.40;;;16.27;;
21505;SDS011;10914;48.886;9.394;2022-08-04T17:56:06;15.40;;;14.60;;
21505;SDS011;10914;48.886;9.394;2022-08-04T17:59:12;15.63;;;14.63;;
21505;SDS011;10914;48.886;9.394;2022-08-04T18:07:06;15.85;;;14.85;;
21505;SDS011;10914;48.886;9.394;2022-08-04T18:09:39;18.63;;;17.42;;
21505;SDS011;10914;48.886;9.394;2022-08-04T18:12:09;19.63;;;17.95;;
21505;SDS011;10914;48.886;9.394;2022-08-04T18:14:41;18.83;;;17.40;;
21505;SDS011;10914;48.886;9.394;2022-08-04T18:17:07;19.00;;;17.80;;
21505;SDS011;10914;48.886;9.394;2022-08-04T18:19:33;18.70;;;17.60;;
21505;SDS011;10914;48.886;9.394;2022-08-04T18:21:59;18.48;;;17.10;;
21505;SDS011;10914;48.886;9.394;2022-08-04T18:24:25;18.95;;;17.65;;
21505;SDS011;10914;48.886;9.394;2022-08-04T18:26:51;18.02;;;16.85;;
21505;SDS011;10914;48.886;9.394;2022-08-04T18:29:16;18.55;;;17.30;;
21505;SDS011;10914;48.886;9.394;2022-08-04T18:31:41;17.63;;;16.50;;
21505;SDS011;10914;48.886;9.394;2022-08-04T18:34:07;18.27;;;16.60;;
21505;SDS011;10914;48.886;9.394;2022-08-04T18:36:32;18.60;;;17.25;;
21505;SDS011;10914;48.886;9.394;2022-08-04T18:38:59;18.30;;;17.10;;
21505;SDS011;10914;48.886;9.394;2022-08-04T18:41:27;21.40;;;20.10;;
21505;SDS011;10914;48.886;9.394;2022-08-04T18:43:53;23.85;;;22.17;;
21505;SDS011;10914;48.886;9.394;2022-08-04T18:46:18;22.35;;;21.13;;
21505;SDS011;10914;48.886;9.394;2022-08-04T18:48:44;31.53;;;29.93;;
21505;SDS011;10914;48.886;9.394;2022-08-04T18:51:09;32.27;;;30.37;;
21505;SDS011;10914;48.886;9.394;2022-08-04T18:53:34;22.70;;;21.40;;
21505;SDS011;10914;48.886;9.394;2022-08-04T18:55:59;25.77;;;24.27;;
21505;SDS011;10914;48.886;9.394;2022-08-04T18:58:24;23.10;;;21.80;;
21505;SDS011;10914;48.886;9.394;2022-08-04T19:00:49;21.57;;;20.27;;